Time;durP1;ratioP1;P1;durP2;ratioP2;P2;SDS_P1;SDS_P2;PMS_P1;PMS_P2;Temp;Humidity;BMP_temperature;BMP_pressure;BME280_temperature;BME280_humidity;BME280_pressure;Samples;Min_cycle;Max_cycle;Signal;HPM_P1;HPM_P2
2021/05/08 00:00:37;;;;;;;8.97;8.20;;;3.40;99.90;;;;;;5100745;28;20624;-86
2021/05/08 00:03:04;;;;;;;9.47;8.67;;;3.40;99.90;;;;;;5082698;28;20620;-86
2021/05/08 00:05:30;;;;;;;8.20;7.60;;;3.40;99.90;;;;;;5100367;28;20616;-86
2021/05/08 00:07:56;;;;;;;8.57;7.77;;;3.40;99.90;;;;;;5083186;28;20624;-86
2021/05/08 00:10:23;;;;;;;9.07;8.27;;;3.40;99.90;;;;;;5102025;28;20708;-85
2021/05/08 00:12:49;;;;;;;9.10;8.30;;;3.40;99.90;;;;;;5104258;28;20648;-86
2021/05/08 00:15:16;;;;;;;10.17;8.50;;;3.50;99.90;;;;;;5103154;28;20655;-87
2021/05/08 00:17:44;;;;;;;8.37;7.77;;;3.50;99.90;;;;;;5103554;28;20633;-85
2021/05/08 00:20:12;;;;;;;9.73;8.83;;;3.40;99.90;;;;;;5101684;28;20682;-86
2021/05/08 00:22:39;;;;;;;9.40;8.40;;;3.50;99.90;;;;;;5098859;28;20612;-85
2021/05/08 00:25:06;;;;;;;7.37;6.87;;;3.40;99.90;;;;;;5096593;28;20634;-86
2021/05/08 00:27:33;;;;;;;9.00;8.17;;;3.30;99.90;;;;;;5082082;28;20658;-86
2021/05/08 00:30:00;;;;;;;8.50;7.70;;;3.20;99.90;;;;;;5093414;28;20647;-85
2021/05/08 00:32:26;;;;;;;10.67;9.70;;;3.30;99.90;;;;;;5092971;28;20658;-84
2021/05/08 00:34:54;;;;;;;9.70;8.90;;;3.20;99.90;;;;;;5096736;28;20625;-85
2021/05/08 00:37:20;;;;;;;9.90;9.10;;;3.20;99.90;;;;;;5095009;28;20620;-87
2021/05/08 00:39:46;;;;;;;9.63;8.80;;;3.20;99.90;;;;;;5094581;28;20724;-86
2021/05/08 00:42:12;;;;;;;10.20;9.30;;;3.10;99.90;;;;;;5097402;28;20632;-85
2021/05/08 00:44:39;;;;;;;11.17;10.17;;;3.10;99.90;;;;;;5091608;28;21433;-86
2021/05/08 00:47:06;;;;;;;12.10;11.10;;;3.10;99.90;;;;;;5078829;28;21226;-86
2021/05/08 00:49:32;;;;;;;12.30;11.30;;;3.00;99.90;;;;;;5090423;28;20645;-84
2021/05/08 00:52:02;;;;;;;13.30;12.10;;;3.00;99.90;;;;;;5092601;28;20655;-86
2021/05/08 00:54:28;;;;;;;12.67;11.67;;;3.00;99.90;;;;;;5100889;28;20614;-87
2021/05/08 00:56:57;;;;;;;12.30;11.20;;;3.00;99.90;;;;;;5101204;28;20624;-87
2021/05/08 00:59:26;;;;;;;12.93;11.83;;;3.00;99.90;;;;;;5101614;28;20630;-86
2021/05/08 01:01:52;;;;;;;13.60;12.60;;;3.00;99.90;;;;;;5105876;28;20620;-86
2021/05/08 01:04:23;;;;;;;14.50;13.30;;;2.90;99.90;;;;;;5097851;28;20626;-87
2021/05/08 01:06:49;;;;;;;13.87;12.80;;;3.00;99.90;;;;;;5085583;28;20639;-87
2021/05/08 01:09:16;;;;;;;13.63;12.53;;;2.90;99.90;;;;;;5086196;28;20623;-87
2021/05/08 01:11:43;;;;;;;12.60;11.70;;;3.00;99.90;;;;;;5091189;28;20648;-87
2021/05/08 01:14:09;;;;;;;12.20;11.20;;;3.10;99.90;;;;;;5086251;28;20686;-88
2021/05/08 01:16:37;;;;;;;12.47;11.47;;;3.10;99.90;;;;;;5083798;28;20623;-88
2021/05/08 01:19:05;;;;;;;11.27;10.37;;;3.10;99.90;;;;;;5088756;28;20699;-87
2021/05/08 01:21:33;;;;;;;11.40;10.40;;;3.10;99.90;;;;;;5090314;28;20747;-87
2021/05/08 01:23:59;;;;;;;12.40;11.40;;;3.10;99.90;;;;;;5085042;28;20608;-86
2021/05/08 01:26:28;;;;;;;11.30;10.30;;;3.00;99.90;;;;;;5088212;28;20604;-87
2021/05/08 01:28:55;;;;;;;10.30;9.40;;;3.00;99.90;;;;;;5109501;28;20692;-86
2021/05/08 01:31:22;;;;;;;9.60;8.90;;;3.00;99.90;;;;;;5108007;28;20660;-87
2021/05/08 01:33:48;;;;;;;10.13;9.23;;;2.90;99.90;;;;;;5109540;28;20687;-87
2021/05/08 01:36:15;;;;;;;11.00;10.00;;;3.00;99.90;;;;;;5110529;28;20699;-87
2021/05/08 01:38:42;;;;;;;9.33;8.53;;;2.90;99.90;;;;;;5109330;28;20651;-87
2021/05/08 01:41:11;;;;;;;9.33;8.60;;;2.90;99.90;;;;;;5112279;28;20728;-87
2021/05/08 01:43:37;;;;;;;9.70;8.90;;;2.90;99.90;;;;;;5113406;28;20607;-87
2021/05/08 01:46:05;;;;;;;9.27;8.47;;;2.90;99.90;;;;;;5113869;28;20604;-86
2021/05/08 01:48:38;;;;;;;9.47;8.73;;;2.90;99.90;;;;;;5102748;28;20655;-86
2021/05/08 01:51:04;;;;;;;9.80;9.10;;;2.80;99.90;;;;;;5099627;28;20682;-85
2021/05/08 01:53:31;;;;;;;9.60;8.87;;;2.70;99.90;;;;;;5100247;28;20600;-88
2021/05/08 01:55:58;;;;;;;9.57;8.77;;;2.70;99.90;;;;;;5093238;28;20601;-87
2021/05/08 01:58:25;;;;;;;9.17;8.37;;;2.70;99.90;;;;;;5080070;28;20616;-87
2021/05/08 02:00:51;;;;;;;9.33;8.53;;;2.70;99.90;;;;;;5082465;28;20712;-87
2021/05/08 02:03:18;;;;;;;9.50;8.70;;;2.70;99.90;;;;;;5083257;28;20609;-88
2021/05/08 02:05:47;;;;;;;8.70;7.90;;;2.70;99.90;;;;;;5090723;28;20655;-89
2021/05/08 02:08:15;;;;;;;7.73;7.10;;;2.90;99.90;;;;;;5079478;28;20617;-89
2021/05/08 02:10:43;;;;;;;8.57;7.97;;;3.00;99.90;;;;;;5081222;28;20649;-88
2021/05/08 02:13:12;;;;;;;9.67;8.77;;;2.90;99.90;;;;;;5080590;28;20688;-88
2021/05/08 02:15:39;;;;;;;9.37;8.67;;;2.90;99.90;;;;;;5083998;28;20628;-88
2021/05/08 02:18:07;;;;;;;8.60;8.00;;;2.80;99.90;;;;;;5079655;28;20637;-89
2021/05/08 02:20:37;;;;;;;8.60;7.70;;;2.90;99.90;;;;;;5079503;28;21237;-89
2021/05/08 02:23:05;;;;;;;9.23;8.43;;;2.70;99.90;;;;;;5084073;28;20632;-88
2021/05/08 02:25:32;;;;;;;8.70;8.10;;;2.70;99.90;;;;;;5081168;28;20608;-89
2021/05/08 02:28:00;;;;;;;9.00;8.13;;;2.70;99.90;;;;;;5083262;28;20638;-87
2021/05/08 02:30:30;;;;;;;9.10;8.40;;;2.70;99.90;;;;;;5085369;28;20648;-89
2021/05/08 02:32:59;;;;;;;8.80;8.13;;;2.70;99.90;;;;;;5081931;28;20760;-87
2021/05/08 02:35:27;;;;;;;9.37;8.57;;;2.60;99.90;;;;;;5084645;28;20628;-88
2021/05/08 02:37:55;;;;;;;8.87;8.17;;;2.40;99.90;;;;;;5079498;28;20958;-87
2021/05/08 02:40:24;;;;;;;9.27;8.57;;;2.50;99.90;;;;;;5081372;28;20652;-87
2021/05/08 02:42:51;;;;;;;7.73;7.13;;;2.50;99.90;;;;;;5081633;28;20741;-87
2021/05/08 02:45:18;;;;;;;9.60;8.83;;;2.50;99.90;;;;;;5082557;28;20680;-87
2021/05/08 02:47:48;;;;;;;9.87;8.83;;;2.60;99.90;;;;;;5080571;28;21150;-87
2021/05/08 02:50:16;;;;;;;9.37;8.57;;;2.50;99.90;;;;;;5078991;28;20651;-86
2021/05/08 02:52:42;;;;;;;9.47;8.63;;;2.40;99.90;;;;;;5081148;28;20728;-88
2021/05/08 02:55:11;;;;;;;8.90;8.30;;;2.40;99.90;;;;;;5081493;28;20633;-87
2021/05/08 02:57:38;;;;;;;9.30;8.40;;;2.50;99.90;;;;;;5077056;28;20629;-88
2021/05/08 03:00:08;;;;;;;8.83;8.13;;;2.40;99.90;;;;;;5080766;28;20641;-87
2021/05/08 03:02:34;;;;;;;9.63;8.83;;;2.40;99.90;;;;;;5081380;28;20982;-90
2021/05/08 03:05:06;;;;;;;9.70;8.80;;;2.40;99.90;;;;;;5078185;28;20624;-88
2021/05/08 03:07:32;;;;;;;9.73;8.83;;;2.20;99.90;;;;;;5079161;28;20612;-88
2021/05/08 03:09:58;;;;;;;9.30;8.50;;;2.20;99.90;;;;;;5083390;28;20640;-89
2021/05/08 03:12:25;;;;;;;9.67;8.87;;;2.20;99.90;;;;;;5074818;28;20668;-88
2021/05/08 03:14:51;;;;;;;9.33;8.53;;;2.20;99.90;;;;;;5082932;28;20603;-88
2021/05/08 03:17:18;;;;;;;9.40;8.53;;;2.20;99.90;;;;;;5076101;28;20636;-89
2021/05/08 03:19:44;;;;;;;8.97;8.17;;;2.10;99.90;;;;;;5083296;28;20646;-87
2021/05/08 03:22:12;;;;;;;10.20;9.37;;;2.10;99.90;;;;;;5080391;28;20617;-88
2021/05/08 03:24:39;;;;;;;9.33;8.53;;;2.10;99.90;;;;;;5078776;28;20632;-90
2021/05/08 03:27:06;;;;;;;9.47;8.67;;;2.00;99.90;;;;;;5081106;28;20626;-88
2021/05/08 03:29:32;;;;;;;10.27;9.20;;;2.00;99.90;;;;;;5081077;28;20652;-87
2021/05/08 03:31:59;;;;;;;10.00;9.20;;;2.20;99.90;;;;;;5081178;28;20664;-88
2021/05/08 03:34:25;;;;;;;9.80;9.00;;;2.10;99.90;;;;;;5080458;28;20676;-87
2021/05/08 03:36:51;;;;;;;9.73;9.00;;;2.00;99.90;;;;;;5081712;28;21018;-87
2021/05/08 03:39:19;;;;;;;9.20;8.20;;;2.00;99.90;;;;;;5081474;28;21093;-87
2021/05/08 03:41:46;;;;;;;9.53;8.83;;;2.00;99.90;;;;;;5083023;28;20629;-88
2021/05/08 03:44:12;;;;;;;9.83;9.03;;;2.00;99.90;;;;;;5083804;28;21141;-87
2021/05/08 03:46:39;;;;;;;9.77;8.87;;;2.10;99.90;;;;;;5080453;28;20673;-88
2021/05/08 03:49:08;;;;;;;10.47;9.60;;;2.10;99.90;;;;;;5082671;28;20615;-88
2021/05/08 03:51:34;;;;;;;10.70;9.80;;;2.20;99.90;;;;;;5083498;28;20728;-88
2021/05/08 03:54:00;;;;;;;10.10;9.10;;;2.20;99.90;;;;;;5082349;28;20698;-87
2021/05/08 03:56:28;;;;;;;9.93;8.93;;;2.10;99.90;;;;;;5079353;28;20616;-88
2021/05/08 03:58:54;;;;;;;8.87;8.23;;;2.10;99.90;;;;;;5073000;28;20732;-87
2021/05/08 04:01:20;;;;;;;9.30;8.50;;;2.10;99.90;;;;;;5083671;28;20691;-88
2021/05/08 04:03:47;;;;;;;9.70;9.00;;;2.10;99.90;;;;;;5083151;28;20624;-88
2021/05/08 04:06:13;;;;;;;9.40;8.60;;;2.10;99.90;;;;;;5077395;28;20654;-87
2021/05/08 04:08:39;;;;;;;9.10;8.40;;;2.10;99.90;;;;;;5075228;28;20631;-86
2021/05/08 04:11:05;;;;;;;9.43;8.63;;;2.30;99.90;;;;;;5081023;28;20643;-87
2021/05/08 04:13:33;;;;;;;9.80;8.97;;;2.20;99.90;;;;;;5078401;28;20666;-87
2021/05/08 04:15:59;;;;;;;10.43;9.43;;;2.30;99.90;;;;;;5078716;28;20679;-87
2021/05/08 04:18:25;;;;;;;10.80;8.50;;;2.30;99.90;;;;;;5071848;28;20686;-87
2021/05/08 04:20:52;;;;;;;9.40;8.60;;;2.30;99.90;;;;;;5076217;28;20649;-88
2021/05/08 04:23:18;;;;;;;9.67;8.97;;;2.30;99.90;;;;;;5079581;28;20629;-86
2021/05/08 04:25:44;;;;;;;10.47;9.50;;;2.30;99.90;;;;;;5078206;28;20654;-86
2021/05/08 04:28:11;;;;;;;8.93;8.23;;;2.40;99.90;;;;;;5078672;28;20759;-86
2021/05/08 04:30:38;;;;;;;9.00;8.30;;;2.40;99.90;;;;;;5079710;28;20674;-86
2021/05/08 04:33:05;;;;;;;7.93;7.40;;;2.50;99.90;;;;;;5082492;28;20659;-87
2021/05/08 04:35:32;;;;;;;8.90;8.20;;;2.50;99.90;;;;;;5076429;28;20628;-87
2021/05/08 04:38:03;;;;;;;9.90;9.00;;;2.50;99.90;;;;;;5082677;28;20644;-87
2021/05/08 04:40:30;;;;;;;9.13;8.43;;;2.60;99.90;;;;;;5083330;28;20707;-86
2021/05/08 04:42:56;;;;;;;9.60;8.80;;;2.60;99.90;;;;;;5082710;28;20622;-85
2021/05/08 04:45:25;;;;;;;10.17;9.37;;;2.60;99.90;;;;;;5076512;28;21218;-86
2021/05/08 04:47:54;;;;;;;9.63;8.83;;;2.70;99.90;;;;;;5081300;28;20751;-86
2021/05/08 04:50:21;;;;;;;9.23;8.40;;;2.70;99.90;;;;;;5084077;28;20697;-86
2021/05/08 04:52:48;;;;;;;9.87;9.17;;;2.80;99.90;;;;;;5083277;28;20664;-86
2021/05/08 04:55:14;;;;;;;10.20;9.40;;;2.80;99.90;;;;;;5066179;28;20628;-86
2021/05/08 04:57:42;;;;;;;9.90;9.07;;;2.80;99.90;;;;;;5080327;28;20643;-87
2021/05/08 05:00:11;;;;;;;10.70;9.80;;;2.90;99.90;;;;;;5082969;28;20643;-87
2021/05/08 05:02:38;;;;;;;11.00;10.20;;;3.00;99.90;;;;;;5084866;28;22156;-87
2021/05/08 05:05:07;;;;;;;9.10;8.40;;;3.10;99.90;;;;;;5081744;28;20631;-87
2021/05/08 05:07:33;;;;;;;10.50;9.70;;;3.20;99.90;;;;;;5080164;28;20581;-86
2021/05/08 05:10:00;;;;;;;9.90;9.10;;;3.30;99.90;;;;;;5081946;28;20644;-86
2021/05/08 05:12:26;;;;;;;8.93;8.23;;;3.40;99.90;;;;;;5078989;28;21533;-86
2021/05/08 05:14:54;;;;;;;9.70;8.87;;;3.50;99.90;;;;;;5080255;28;20632;-86
2021/05/08 05:17:20;;;;;;;9.70;8.90;;;3.50;99.90;;;;;;5078746;28;20616;-87
2021/05/08 05:19:46;;;;;;;9.97;9.13;;;3.40;99.90;;;;;;5085818;28;20982;-87
2021/05/08 05:22:14;;;;;;;13.40;9.20;;;3.60;99.90;;;;;;5083857;28;20640;-87
2021/05/08 05:24:41;;;;;;;9.60;8.80;;;3.70;99.90;;;;;;5082118;28;20766;-87
2021/05/08 05:27:09;;;;;;;10.03;9.27;;;3.70;99.90;;;;;;5082850;28;20632;-87
2021/05/08 05:29:35;;;;;;;9.90;9.10;;;3.90;99.90;;;;;;5077830;28;21031;-87
2021/05/08 05:32:02;;;;;;;9.17;8.47;;;4.00;99.90;;;;;;5079916;28;21021;-85
2021/05/08 05:34:28;;;;;;;9.87;9.00;;;4.20;99.90;;;;;;5080238;28;20613;-86
2021/05/08 05:36:55;;;;;;;9.43;8.63;;;4.20;99.90;;;;;;5081353;28;20736;-86
2021/05/08 05:39:22;;;;;;;9.50;8.77;;;4.30;99.90;;;;;;5081054;28;20643;-87
2021/05/08 05:41:48;;;;;;;8.90;8.23;;;4.50;99.90;;;;;;5080845;28;20709;-87
2021/05/08 05:44:14;;;;;;;9.43;8.63;;;4.60;99.90;;;;;;5078108;28;20639;-86
2021/05/08 05:46:40;;;;;;;10.17;9.37;;;4.70;99.90;;;;;;5079668;28;20632;-85
2021/05/08 05:49:07;;;;;;;8.73;8.10;;;4.70;99.90;;;;;;5078247;28;20628;-87
2021/05/08 05:51:34;;;;;;;9.00;8.30;;;4.80;99.90;;;;;;5081199;28;21243;-86
2021/05/08 05:54:00;;;;;;;9.50;8.80;;;4.90;99.90;;;;;;5075943;28;20640;-85
2021/05/08 05:56:30;;;;;;;9.03;8.33;;;5.00;99.90;;;;;;5074468;28;21197;-87
2021/05/08 05:58:56;;;;;;;9.37;8.63;;;5.10;99.90;;;;;;5075457;28;20720;-89
2021/05/08 06:01:24;;;;;;;9.57;8.83;;;5.30;99.90;;;;;;5079835;28;20639;-89
2021/05/08 06:03:50;;;;;;;9.43;8.63;;;5.30;99.90;;;;;;5082566;28;20681;-88
2021/05/08 06:06:17;;;;;;;8.93;8.23;;;5.40;99.90;;;;;;5078564;28;20651;-88
2021/05/08 06:08:43;;;;;;;8.53;7.93;;;5.60;99.90;;;;;;5081462;28;20623;-90
2021/05/08 06:11:11;;;;;;;9.90;9.10;;;5.50;99.90;;;;;;5084166;28;20635;-87
2021/05/08 06:13:39;;;;;;;9.40;8.60;;;5.60;99.90;;;;;;5075191;28;20710;-87
2021/05/08 06:16:06;;;;;;;10.03;9.13;;;5.70;99.90;;;;;;5078773;28;21218;-88
2021/05/08 06:18:33;;;;;;;10.60;9.60;;;5.80;99.90;;;;;;5082053;28;20667;-87
2021/05/08 06:20:59;;;;;;;9.13;8.30;;;5.80;99.90;;;;;;5080544;28;20668;-87
2021/05/08 06:23:26;;;;;;;9.23;8.40;;;5.90;99.90;;;;;;5078323;28;20616;-87
2021/05/08 06:25:54;;;;;;;9.23;8.43;;;6.00;99.90;;;;;;5074176;28;20631;-87
2021/05/08 06:28:20;;;;;;;11.17;9.97;;;6.10;99.90;;;;;;5080383;28;20952;-87
2021/05/08 06:30:47;;;;;;;8.70;8.10;;;6.20;99.90;;;;;;5079382;28;20709;-88
2021/05/08 06:33:15;;;;;;;8.93;8.13;;;6.20;99.90;;;;;;5086616;28;21051;-89
2021/05/08 06:35:44;;;;;;;9.67;8.67;;;6.50;99.90;;;;;;5066168;28;21201;-90
2021/05/08 06:38:10;;;;;;;9.80;9.00;;;6.60;99.90;;;;;;5080758;28;20655;-88
2021/05/08 06:40:38;;;;;;;8.20;7.60;;;6.80;99.90;;;;;;5079305;28;20656;-90
2021/05/08 06:43:04;;;;;;;9.30;8.50;;;6.90;99.90;;;;;;5082587;28;20612;-88
2021/05/08 06:45:31;;;;;;;9.33;8.53;;;7.10;99.90;;;;;;5082191;28;20643;-89
2021/05/08 06:47:59;;;;;;;9.17;8.40;;;7.10;99.90;;;;;;5064416;28;20674;-89
2021/05/08 06:50:26;;;;;;;8.23;7.63;;;7.30;99.90;;;;;;5078832;28;20607;-91
2021/05/08 06:52:52;;;;;;;8.60;7.93;;;7.40;99.90;;;;;;5081321;28;20771;-89
2021/05/08 06:55:19;;;;;;;11.97;9.43;;;7.50;99.90;;;;;;5081789;28;20605;-89
2021/05/08 06:57:45;;;;;;;9.60;8.80;;;7.70;99.90;;;;;;5080742;28;20663;-90
2021/05/08 07:00:23;;;;;;;11.40;8.40;;;7.90;99.90;;;;;;5080037;28;20676;-90
2021/05/08 07:02:51;;;;;;;9.83;8.80;;;8.20;99.90;;;;;;5079592;28;20608;-86
2021/05/08 07:05:19;;;;;;;8.57;7.90;;;8.20;99.90;;;;;;5078373;28;20632;-87
2021/05/08 07:07:48;;;;;;;9.47;8.77;;;8.30;99.90;;;;;;5079000;28;20611;-86
2021/05/08 07:10:14;;;;;;;9.17;8.43;;;8.50;99.90;;;;;;5080340;28;20628;-87
2021/05/08 07:12:43;;;;;;;7.57;6.97;;;8.70;99.90;;;;;;5075663;28;20748;-89
2021/05/08 07:15:11;;;;;;;8.03;7.20;;;9.00;99.90;;;;;;5076597;28;20688;-87
2021/05/08 07:17:40;;;;;;;9.30;8.40;;;9.20;99.90;;;;;;5091467;28;20627;-89
2021/05/08 07:20:09;;;;;;;8.87;7.90;;;9.20;99.90;;;;;;5094974;28;20624;-90
2021/05/08 07:22:39;;;;;;;9.87;7.67;;;9.20;99.90;;;;;;5092928;28;20651;-90
2021/05/08 07:25:07;;;;;;;8.23;7.53;;;9.40;99.90;;;;;;5075379;28;20644;-89
2021/05/08 07:27:35;;;;;;;7.50;6.90;;;9.70;99.90;;;;;;5073318;28;21175;-91
2021/05/08 07:30:06;;;;;;;7.80;7.00;;;9.90;99.90;;;;;;5084170;28;20628;-90
2021/05/08 07:32:38;;;;;;;6.80;6.20;;;10.20;99.90;;;;;;5091151;28;20668;-90
2021/05/08 07:35:11;;;;;;;4.93;4.53;;;10.50;99.10;;;;;;5081144;28;20682;-89
2021/05/08 07:37:48;;;;;;;5.97;5.47;;;10.60;97.20;;;;;;5077025;28;20704;-90
2021/05/08 07:40:16;;;;;;;6.10;4.70;;;11.00;98.00;;;;;;5077216;28;20620;-90
2021/05/08 07:42:44;;;;;;;5.70;4.80;;;11.10;96.80;;;;;;5077613;28;20666;-90
2021/05/08 07:45:14;;;;;;;5.57;5.07;;;11.20;96.00;;;;;;5076115;28;20653;-91
2021/05/08 07:47:48;;;;;;;5.63;4.70;;;11.30;96.10;;;;;;5078029;28;20629;-89
2021/05/08 07:50:15;;;;;;;5.43;4.93;;;11.50;96.50;;;;;;5063372;28;20633;-90
2021/05/08 07:52:43;;;;;;;5.33;4.43;;;11.60;95.70;;;;;;5082427;28;20680;-91
2021/05/08 07:55:13;;;;;;;6.00;4.83;;;11.50;96.50;;;;;;5079270;28;20998;-91
2021/05/08 07:57:41;;;;;;;4.53;4.13;;;11.90;96.10;;;;;;5079922;28;21092;-91
2021/05/08 08:00:12;;;;;;;4.97;4.57;;;11.90;95.00;;;;;;5085512;28;20613;-91
2021/05/08 08:02:41;;;;;;;5.80;4.67;;;11.80;95.50;;;;;;5078498;28;20660;-89
2021/05/08 08:05:09;;;;;;;4.63;4.20;;;11.70;96.10;;;;;;5081556;28;21007;-90
2021/05/08 08:07:39;;;;;;;5.13;4.40;;;11.90;95.30;;;;;;5084232;28;20636;-90
2021/05/08 08:10:09;;;;;;;6.00;4.40;;;12.00;96.10;;;;;;5097277;28;20630;-90
2021/05/08 08:12:40;;;;;;;6.70;4.60;;;12.10;95.70;;;;;;5066898;28;21162;-89
2021/05/08 08:15:09;;;;;;;4.90;4.50;;;12.10;95.60;;;;;;5079327;28;21175;-91
2021/05/08 08:17:38;;;;;;;5.43;5.03;;;12.40;95.20;;;;;;5080888;28;20623;-91
2021/05/08 08:20:10;;;;;;;5.33;4.83;;;12.50;95.00;;;;;;5083769;28;20619;-90
2021/05/08 08:22:39;;;;;;;4.67;3.90;;;12.60;96.20;;;;;;5081905;28;20652;-90
2021/05/08 08:25:21;;;;;;;5.57;4.43;;;12.70;95.30;;;;;;5075906;28;20664;-91
2021/05/08 08:27:53;;;;;;;7.23;4.57;;;12.70;95.30;;;;;;5085810;28;21009;-91
2021/05/08 08:30:23;;;;;;;5.43;4.63;;;12.60;94.90;;;;;;5086692;28;20638;-91
2021/05/08 08:32:52;;;;;;;4.70;4.30;;;13.00;94.90;;;;;;5088835;28;20667;-90
2021/05/08 08:35:18;;;;;;;4.10;3.57;;;13.10;95.00;;;;;;5084304;28;20608;-91
2021/05/08 08:37:45;;;;;;;4.43;4.00;;;13.20;93.90;;;;;;5085632;28;20635;-91
2021/05/08 08:40:13;;;;;;;5.77;3.63;;;13.50;94.20;;;;;;5082513;28;20643;-90
2021/05/08 08:42:40;;;;;;;11.17;3.93;;;13.70;94.10;;;;;;5084546;28;20736;-90
2021/05/08 08:45:07;;;;;;;3.70;3.10;;;14.00;93.60;;;;;;5080346;28;20630;-90
2021/05/08 08:47:36;;;;;;;6.20;3.20;;;14.30;93.00;;;;;;5083156;28;20632;-93
2021/05/08 08:50:10;;;;;;;6.20;3.47;;;14.40;91.40;;;;;;5086530;28;20774;-96
2021/05/08 08:52:40;;;;;;;7.90;2.63;;;14.20;92.60;;;;;;5098517;28;20659;-96
2021/05/08 08:55:10;;;;;;;5.30;2.63;;;14.30;92.40;;;;;;5107756;28;20634;-94
2021/05/08 08:57:44;;;;;;;2.70;2.50;;;14.40;91.00;;;;;;5096707;28;20651;-95
2021/05/08 09:00:15;;;;;;;2.27;2.07;;;14.90;90.60;;;;;;5092580;28;20739;-93
2021/05/08 09:02:42;;;;;;;4.30;3.00;;;15.00;86.70;;;;;;5091219;28;20631;-95
2021/05/08 09:05:20;;;;;;;3.57;2.70;;;15.20;89.60;;;;;;5107291;28;20711;-94
2021/05/08 09:07:48;;;;;;;3.60;2.80;;;14.80;87.90;;;;;;5090333;28;20655;-95
2021/05/08 09:10:27;;;;;;;3.20;2.80;;;15.30;89.60;;;;;;5089984;28;21183;-94
2021/05/08 09:12:58;;;;;;;4.23;2.90;;;15.70;86.40;;;;;;5089931;28;20817;-93
2021/05/08 09:15:35;;;;;;;4.80;3.20;;;15.20;88.80;;;;;;5095286;28;20672;-94
2021/05/08 09:18:08;;;;;;;2.60;2.40;;;15.00;85.20;;;;;;5092136;28;20687;-93
2021/05/08 09:20:44;;;;;;;2.60;2.27;;;15.40;88.60;;;;;;5078408;28;20624;-94
2021/05/08 09:23:25;;;;;;;2.50;2.07;;;15.70;86.90;;;;;;5092284;28;20647;-95
2021/05/08 09:26:06;;;;;;;6.70;2.70;;;15.40;85.20;;;;;;5106023;28;20643;-96
2021/05/08 09:28:56;;;;;;;3.00;2.60;;;15.70;82.20;;;;;;5097378;28;20759;-96
2021/05/08 09:31:26;;;;;;;3.60;2.20;;;15.90;79.10;;;;;;5075552;28;20608;-96
2021/05/08 09:33:56;;;;;;;2.13;1.90;;;16.00;77.80;;;;;;5096381;28;20694;-95
2021/05/08 09:36:23;;;;;;;2.57;2.20;;;15.70;80.70;;;;;;5099310;28;20663;-95
2021/05/08 09:38:51;;;;;;;2.13;1.53;;;16.00;76.50;;;;;;5097561;28;20759;-95
2021/05/08 09:41:19;;;;;;;2.77;1.87;;;16.40;77.40;;;;;;5094077;28;20642;-94
2021/05/08 09:43:46;;;;;;;1.70;1.60;;;16.60;75.10;;;;;;5089995;28;20732;-95
2021/05/08 09:46:26;;;;;;;2.70;1.63;;;16.20;74.50;;;;;;5094022;28;20727;-95
2021/05/08 09:49:10;;;;;;;3.70;2.10;;;16.40;80.10;;;;;;5092153;28;21058;-95
2021/05/08 09:51:37;;;;;;;2.30;1.73;;;16.50;78.00;;;;;;5092087;28;20734;-95
2021/05/08 09:54:14;;;;;;;1.90;1.80;;;16.70;76.20;;;;;;5095334;28;20670;-96
2021/05/08 09:56:44;;;;;;;3.10;2.13;;;16.60;75.50;;;;;;5094700;28;20731;-96
2021/05/08 09:59:36;;;;;;;2.80;1.83;;;16.30;79.20;;;;;;5097796;28;20648;-93
2021/05/08 10:02:21;;;;;;;2.23;2.03;;;16.40;76.10;;;;;;5115903;28;20650;-96
2021/05/08 10:04:51;;;;;;;2.13;2.03;;;16.70;76.50;;;;;;5101008;28;20619;-96
2021/05/08 10:07:19;;;;;;;7.70;4.00;;;16.60;73.30;;;;;;5109218;28;20645;-96
2021/05/08 10:09:51;;;;;;;2.20;2.03;;;16.60;72.90;;;;;;5110808;28;20632;-96
2021/05/08 10:12:23;;;;;;;2.10;1.80;;;16.80;70.70;;;;;;5112195;28;20740;-96
2021/05/08 10:14:52;;;;;;;1.80;1.70;;;16.90;68.70;;;;;;5111075;28;21193;-96
2021/05/08 10:17:25;;;;;;;2.03;1.80;;;16.90;67.40;;;;;;5096109;28;20667;-96
2021/05/08 10:20:08;;;;;;;2.53;2.33;;;17.10;66.10;;;;;;5096301;28;20647;-96
2021/05/08 10:22:42;;;;;;;2.30;1.83;;;17.30;66.50;;;;;;5095804;28;20649;-96
2021/05/08 10:25:09;;;;;;;1.80;1.70;;;17.40;68.20;;;;;;5096073;28;20715;-96
2021/05/08 10:27:38;;;;;;;2.60;1.40;;;17.70;66.70;;;;;;5091979;28;20666;-96
2021/05/08 10:30:12;;;;;;;2.07;1.50;;;17.60;68.20;;;;;;5095077;28;21238;-96
2021/05/08 10:33:09;;;;;;;3.23;1.80;;;17.60;69.80;;;;;;5102745;28;20714;-96
2021/05/08 10:35:43;;;;;;;2.20;1.63;;;17.70;67.80;;;;;;5103610;28;20700;-96
2021/05/08 10:38:22;;;;;;;1.50;1.23;;;18.10;66.90;;;;;;5108672;28;20673;-96
2021/05/08 10:41:02;;;;;;;1.40;1.30;;;17.80;67.70;;;;;;5112127;28;20936;-95
2021/05/08 10:43:43;;;;;;;2.77;1.63;;;17.90;66.30;;;;;;5112557;28;20632;-96
2021/05/08 10:46:13;;;;;;;4.70;1.77;;;18.30;65.50;;;;;;5110370;28;20617;-96
2021/05/08 10:49:18;;;;;;;1.73;1.53;;;18.70;63.00;;;;;;5094994;28;20624;-95
2021/05/08 10:52:02;;;;;;;3.07;1.67;;;18.60;62.90;;;;;;5108576;28;20663;-96
2021/05/08 10:54:57;;;;;;;1.70;1.60;;;18.50;64.30;;;;;;5113703;28;20695;-94
2021/05/08 10:57:37;;;;;;;3.17;2.03;;;18.60;64.70;;;;;;5084840;28;20624;-91
2021/05/08 11:00:29;;;;;;;2.53;1.70;;;18.30;62.70;;;;;;5085186;28;20645;-92
2021/05/08 11:03:10;;;;;;;2.20;1.33;;;18.40;62.80;;;;;;5081544;28;20640;-91
2021/05/08 11:05:52;;;;;;;1.77;1.67;;;18.60;60.40;;;;;;5088612;28;20632;-91
2021/05/08 11:08:41;;;;;;;2.10;1.43;;;18.10;61.00;;;;;;5085722;28;20651;-92
2021/05/08 11:14:54;;;;;;;2.30;1.73;;;18.60;60.90;;;;;;5085680;28;20628;-91
2021/05/08 11:17:21;;;;;;;2.23;1.83;;;18.70;59.40;;;;;;5090106;28;20629;-91
2021/05/08 11:20:23;;;;;;;1.90;1.30;;;18.90;58.50;;;;;;5076735;28;20647;-96
2021/05/08 11:22:55;;;;;;;2.03;1.83;;;18.80;57.50;;;;;;5071144;28;20992;-94
2021/05/08 11:25:35;;;;;;;1.33;1.20;;;18.80;60.30;;;;;;5095407;28;20620;-92
2021/05/08 11:28:07;;;;;;;1.50;1.40;;;19.60;59.40;;;;;;5098143;28;21147;-92
2021/05/08 11:30:34;;;;;;;1.20;1.10;;;20.10;55.20;;;;;;5097165;28;20608;-93
2021/05/08 11:33:02;;;;;;;2.67;1.30;;;20.30;55.80;;;;;;5095368;28;20673;-93
2021/05/08 11:35:38;;;;;;;1.47;1.37;;;20.40;54.10;;;;;;5094477;28;20710;-92
2021/05/08 11:41:35;;;;;;;1.43;1.10;;;20.50;51.60;;;;;;5094063;28;21190;-93
2021/05/08 11:44:31;;;;;;;1.37;1.10;;;20.30;50.30;;;;;;5100795;28;20708;-95
2021/05/08 11:47:05;;;;;;;1.40;1.27;;;20.10;51.70;;;;;;5093327;28;21259;-94
2021/05/08 11:49:34;;;;;;;1.30;1.20;;;20.00;53.30;;;;;;5085601;28;20624;-93
2021/05/08 11:52:03;;;;;;;2.50;1.10;;;19.80;54.20;;;;;;5083429;28;20757;-95
2021/05/08 11:54:42;;;;;;;2.70;1.60;;;19.90;53.90;;;;;;5084079;28;20638;-94
2021/05/08 11:57:23;;;;;;;3.03;1.73;;;20.00;52.70;;;;;;5080968;28;20726;-94
2021/05/08 11:59:54;;;;;;;5.03;1.67;;;19.90;52.10;;;;;;5087189;28;20652;-95
2021/05/08 12:02:26;;;;;;;2.17;1.20;;;20.30;51.30;;;;;;5086778;28;20656;-95
2021/05/08 12:05:07;;;;;;;1.80;1.43;;;20.50;51.70;;;;;;5087392;28;20636;-95
2021/05/08 12:07:44;;;;;;;1.73;1.43;;;20.30;52.70;;;;;;5061161;28;20609;-95
2021/05/08 12:14:02;;;;;;;;;;;;;;;;;;;;;
2021/05/08 12:16:36;;;;;;;1.10;1.00;;;21.00;51.00;;;;;;5060359;28;20655;-95
2021/05/08 12:19:28;;;;;;;1.00;0.90;;;20.70;50.40;;;;;;5094119;28;20636;-93
2021/05/08 12:22:07;;;;;;;1.60;1.20;;;21.30;50.50;;;;;;5088123;28;20675;-95
2021/05/08 12:25:05;;;;;;;2.20;1.20;;;21.20;51.40;;;;;;5076344;28;20731;-95
2021/05/08 12:27:35;;;;;;;2.20;1.03;;;21.50;49.40;;;;;;5075186;28;20659;-95
2021/05/08 12:30:06;;;;;;;1.50;1.40;;;21.50;51.00;;;;;;5088122;28;21386;-96
2021/05/08 12:32:49;;;;;;;1.83;1.23;;;21.40;49.90;;;;;;5090753;28;20682;-96
2021/05/08 12:35:32;;;;;;;1.93;1.23;;;21.60;48.20;;;;;;5082358;28;20662;-96
2021/05/08 12:38:26;;;;;;;3.93;1.60;;;21.70;49.30;;;;;;5086083;28;20628;-95
2021/05/08 12:41:46;;;;;;;1.50;1.40;;;22.60;48.10;;;;;;5091987;28;20717;-96
2021/05/08 12:44:24;;;;;;;;;;;;;;;;;;;;;
2021/05/08 12:47:18;;;;;;;1.37;1.20;;;22.90;48.00;;;;;;5099335;28;20687;-96
2021/05/08 12:50:06;;;;;;;1.20;1.00;;;23.90;46.80;;;;;;5134997;22;20655;-95
2021/05/08 12:52:33;;;;;;;1.63;1.27;;;24.60;46.20;;;;;;5044531;28;20658;-96
2021/05/08 12:55:10;;;;;;;3.17;1.50;;;24.60;46.40;;;;;;5054337;28;20641;-96
2021/05/08 13:00:22;;;;;;;2.33;1.87;;;24.00;45.70;;;;;;5042657;28;20653;-96
2021/05/08 13:02:56;;;;;;;1.93;1.27;;;23.70;46.00;;;;;;5032499;28;20629;-96
2021/05/08 13:05:37;;;;;;;1.57;1.47;;;23.60;45.40;;;;;;5032422;28;20582;-96
2021/05/08 13:08:04;;;;;;;2.20;1.57;;;22.80;44.40;;;;;;5031371;28;21267;-96
2021/05/08 13:10:39;;;;;;;1.33;1.23;;;22.50;46.20;;;;;;5029657;28;20673;-94
2021/05/08 13:13:17;;;;;;;3.53;1.50;;;22.10;46.00;;;;;;5030498;28;20735;-96
2021/05/08 13:15:43;;;;;;;2.03;1.50;;;22.00;48.70;;;;;;5023592;28;20642;-96
2021/05/08 13:18:15;;;;;;;1.83;1.43;;;21.40;48.60;;;;;;5026572;28;21247;-95
2021/05/08 13:20:42;;;;;;;2.90;1.30;;;21.60;47.70;;;;;;5026073;28;20665;-94
2021/05/08 13:23:13;;;;;;;1.67;1.43;;;21.40;48.80;;;;;;5024864;28;21190;-95